createdAt,value
2022-11-25T00:04:04.690Z,35.53
2022-11-25T00:09:10.476Z,35.66
2022-11-25T00:14:15.006Z,35.76
2022-11-25T00:19:17.515Z,35.36
2022-11-25T00:24:19.646Z,35.59
2022-11-25T00:29:21.595Z,35.66
2022-11-25T00:34:23.490Z,37.33
2022-11-25T00:39:27.027Z,34.87
2022-11-25T00:44:40.466Z,32.98
2022-11-25T00:49:47.408Z,33.21
2022-11-25T00:54:50.078Z,31.71
2022-11-25T00:59:52.045Z,33.12
2022-11-25T01:04:56.057Z,32.25
2022-11-25T01:09:58.099Z,32.98
2022-11-25T01:15:00.242Z,30.84
2022-11-25T01:20:03.926Z,31.86
2022-11-25T01:25:06.278Z,31.73
2022-11-25T01:30:09.136Z,31.65
2022-11-25T01:35:11.299Z,30.17
2022-11-25T01:40:13.452Z,29.55
2022-11-25T01:45:27.972Z,32.06
2022-11-25T01:50:32.772Z,32.93
2022-11-25T01:55:37.895Z,30.78
2022-11-25T02:00:40.046Z,31.93
2022-11-25T02:05:51.143Z,31.45
2022-11-25T02:10:55.570Z,31.15
2022-11-25T02:15:57.573Z,34.76
2022-11-25T02:20:59.916Z,33.28
2022-11-25T02:26:04.454Z,37.66
2022-11-25T02:31:08.285Z,35.31
2022-11-25T02:36:16.165Z,37.09
2022-11-25T02:41:22.563Z,36.98
2022-11-25T02:46:31.423Z,36.49
2022-11-25T02:51:36.870Z,35.11
2022-11-25T02:56:40.124Z,39.32
2022-11-25T03:01:43.529Z,35.29
2022-11-25T03:06:56.186Z,35.74
2022-11-25T03:12:21.054Z,34.63
2022-11-25T03:17:35.079Z,32.44
2022-11-25T03:22:51.934Z,34.41
2022-11-25T03:27:54.020Z,32.12
2022-11-25T03:32:56.127Z,33.28
2022-11-25T03:38:00.304Z,29.87
2022-11-25T03:43:02.993Z,29.60
2022-11-25T03:48:05.327Z,28.80
2022-11-25T03:53:07.463Z,30.38
2022-11-25T03:58:10.858Z,29.74
2022-11-25T04:03:13.141Z,30.34
2022-11-25T04:08:15.119Z,28.23
2022-11-25T04:13:19.312Z,27.46
2022-11-25T04:18:21.686Z,27.68
2022-11-25T04:23:27.161Z,27.49
2022-11-25T04:28:35.181Z,27.70
2022-11-25T04:33:37.591Z,28.06
2022-11-25T04:38:40.084Z,28.14
2022-11-25T04:43:43.438Z,28.99
2022-11-25T04:48:48.229Z,29.33
2022-11-25T04:53:50.987Z,30.42
2022-11-25T04:59:11.887Z,29.41
2022-11-25T05:04:20.528Z,29.58
2022-11-25T05:09:23.393Z,28.86
2022-11-25T05:14:36.393Z,28.97
2022-11-25T05:19:38.603Z,29.68
2022-11-25T05:24:40.865Z,29.58
2022-11-25T05:29:43.119Z,29.48
2022-11-25T05:34:46.304Z,28.31
2022-11-25T05:39:49.263Z,27.29
2022-11-25T05:45:17.643Z,26.88
2022-11-25T05:50:26.053Z,27.95
2022-11-25T05:55:56.359Z,26.89
2022-11-25T06:01:17.784Z,27.14
2022-11-25T06:06:21.714Z,27.01
2022-11-25T06:11:25.431Z,26.39
2022-11-25T06:16:28.335Z,25.74
2022-11-25T06:21:59.766Z,26.37
2022-11-25T06:27:03.718Z,26.87
2022-11-25T06:32:07.378Z,25.88
2022-11-25T06:37:13.468Z,24.48
2022-11-25T06:42:15.403Z,24.04
2022-11-25T06:47:17.705Z,24.00
2022-11-25T06:52:19.999Z,22.53
2022-11-25T06:57:21.923Z,21.87
2022-11-25T07:02:24.112Z,22.06
2022-11-25T07:07:26.133Z,21.90
2022-11-25T07:12:28.122Z,20.94
2022-11-25T07:17:30.175Z,21.44
2022-11-25T07:22:32.177Z,20.53
2022-11-25T07:27:34.062Z,19.51
2022-11-25T07:32:36.095Z,19.51
2022-11-25T07:37:38.185Z,16.93
2022-11-25T07:42:40.151Z,16.87
2022-11-25T07:47:43.825Z,17.03
2022-11-25T07:52:45.851Z,16.49
2022-11-25T07:57:47.696Z,16.47
2022-11-25T08:02:49.773Z,16.35
2022-11-25T08:07:51.705Z,15.76
2022-11-25T08:12:53.631Z,16.90
2022-11-25T08:17:55.509Z,17.76
2022-11-25T08:22:57.365Z,18.31
2022-11-25T08:28:00.363Z,19.62
2022-11-25T08:33:05.888Z,19.24
2022-11-25T08:38:11.292Z,19.72
2022-11-25T08:43:13.791Z,20.08
2022-11-25T08:48:17.645Z,18.60
2022-11-25T08:53:21.147Z,19.00
2022-11-25T08:58:23.132Z,18.22
2022-11-25T09:03:25.858Z,17.69
2022-11-25T09:08:28.040Z,18.29
2022-11-25T09:13:30.199Z,18.77
2022-11-25T09:18:32.696Z,18.50
2022-11-25T09:23:34.584Z,18.69
2022-11-25T09:28:36.950Z,17.35
2022-11-25T09:33:39.020Z,16.36
2022-11-25T09:38:44.129Z,16.32
2022-11-25T09:44:17.680Z,16.71
2022-11-25T09:49:25.583Z,17.15
2022-11-25T09:54:35.268Z,17.62
2022-11-25T10:00:06.496Z,16.83
2022-11-25T10:05:34.931Z,17.22
2022-11-25T10:10:52.203Z,19.41
2022-11-25T10:15:57.940Z,18.66
2022-11-25T10:21:00.260Z,18.07
2022-11-25T10:26:14.538Z,18.36
2022-11-25T10:31:22.586Z,18.17
2022-11-25T10:36:32.375Z,17.90
2022-11-25T10:41:50.630Z,17.59
2022-11-25T10:47:14.284Z,17.57
2022-11-25T10:52:21.865Z,16.76
2022-11-25T10:57:28.867Z,16.21
2022-11-25T11:02:39.641Z,15.35
2022-11-25T11:07:44.049Z,15.00
2022-11-25T11:12:59.633Z,15.91
2022-11-25T11:18:23.220Z,15.10
2022-11-25T11:23:26.083Z,13.87
2022-11-25T11:28:38.206Z,14.94
2022-11-25T11:34:04.449Z,14.40
2022-11-25T11:39:35.921Z,15.50
2022-11-25T11:44:47.245Z,14.97
2022-11-25T11:50:13.911Z,15.66
2022-11-25T11:55:24.839Z,14.46
2022-11-25T12:00:30.357Z,14.64
2022-11-25T12:05:35.195Z,15.50
2022-11-25T12:11:10.495Z,15.77
2022-11-25T12:16:18.601Z,15.01
2022-11-25T12:21:46.172Z,15.60
2022-11-25T12:26:56.807Z,17.57
2022-11-25T12:32:36.864Z,18.31
2022-11-25T12:37:58.976Z,19.27
2022-11-25T12:43:21.537Z,20.42
2022-11-25T12:48:23.440Z,20.41
2022-11-25T12:53:47.707Z,21.33
2022-11-25T12:59:06.150Z,21.60
2022-11-25T13:04:17.402Z,20.47
2022-11-25T13:09:43.862Z,21.62
2022-11-25T13:15:13.534Z,20.51
2022-11-25T13:20:28.109Z,20.88
2022-11-25T13:25:30.275Z,21.37
2022-11-25T13:30:32.288Z,22.47
2022-11-25T13:35:35.909Z,21.66
2022-11-25T13:40:39.122Z,21.34
2022-11-25T13:45:44.897Z,22.64
2022-11-25T13:51:10.066Z,22.64
2022-11-25T13:56:26.152Z,23.67
2022-11-25T14:01:30.549Z,23.53
2022-11-25T14:06:51.241Z,23.76
2022-11-25T14:12:13.252Z,24.71
2022-11-25T14:17:27.196Z,25.06
2022-11-25T14:22:56.918Z,25.48
2022-11-25T14:28:19.043Z,26.26
2022-11-25T14:33:28.219Z,26.40
2022-11-25T14:38:40.496Z,26.65
2022-11-25T14:43:50.684Z,26.65
2022-11-25T14:49:03.298Z,27.90
2022-11-25T14:54:10.670Z,27.42
2022-11-25T14:59:12.970Z,27.62
2022-11-25T15:04:22.656Z,29.00
2022-11-25T15:09:28.266Z,28.48
2022-11-25T15:14:34.198Z,29.07
2022-11-25T15:19:37.670Z,28.42
2022-11-25T15:24:43.436Z,28.90
2022-11-25T15:29:47.649Z,28.42
2022-11-25T15:34:51.637Z,28.76
2022-11-25T15:40:12.103Z,29.07
2022-11-25T15:45:21.085Z,29.97
2022-11-25T15:50:26.412Z,30.71
2022-11-25T15:55:33.556Z,30.25
2022-11-25T16:00:35.636Z,32.60
2022-11-25T16:05:37.800Z,32.72
2022-11-25T16:10:45.780Z,31.92
2022-11-25T16:16:15.782Z,32.89
2022-11-25T16:21:30.508Z,33.60
2022-11-25T16:26:48.271Z,32.00
2022-11-25T16:31:50.224Z,31.23
2022-11-25T16:36:52.675Z,31.74
2022-11-25T16:41:57.776Z,32.40
2022-11-25T16:47:00.155Z,32.58
2022-11-25T16:52:02.243Z,31.98
2022-11-25T16:57:05.341Z,30.90
2022-11-25T17:02:19.464Z,32.95
2022-11-25T17:07:38.363Z,32.15
2022-11-25T17:12:42.143Z,31.95
2022-11-25T17:17:47.585Z,32.90
2022-11-25T17:22:50.456Z,33.46
2022-11-25T17:27:53.994Z,32.87
2022-11-25T17:33:10.964Z,32.53
2022-11-25T17:38:18.993Z,32.92
2022-11-25T17:43:21.221Z,33.62
2022-11-25T17:48:24.494Z,34.31
2022-11-25T17:53:26.825Z,34.44
2022-11-25T17:58:29.843Z,33.92
2022-11-25T18:03:31.822Z,33.84
2022-11-25T18:08:34.110Z,34.13
2022-11-25T18:13:39.255Z,33.65
2022-11-25T18:18:41.260Z,34.36
2022-11-25T18:23:43.840Z,33.82
2022-11-25T18:28:46.453Z,34.90
2022-11-25T18:33:54.604Z,36.23
2022-11-25T18:39:02.860Z,35.57
2022-11-25T18:44:06.177Z,35.84
2022-11-25T18:49:13.455Z,36.06
2022-11-25T18:54:15.550Z,35.47
2022-11-25T18:59:25.159Z,34.19
2022-11-25T19:04:27.424Z,33.58
2022-11-25T19:09:29.691Z,33.67
2022-11-25T19:14:41.918Z,33.95
2022-11-25T19:19:43.904Z,33.81
2022-11-25T19:24:46.255Z,33.70
2022-11-25T19:29:48.157Z,32.67
2022-11-25T19:34:57.184Z,32.52
2022-11-25T19:39:59.159Z,32.68
2022-11-25T19:45:04.036Z,34.30
2022-11-25T19:50:06.797Z,33.41
2022-11-25T19:55:20.381Z,33.40
2022-11-25T20:00:23.938Z,34.81
2022-11-25T20:05:35.096Z,34.57
2022-11-25T20:10:37.181Z,35.10
2022-11-25T20:15:40.714Z,33.34
2022-11-25T20:20:43.157Z,33.02
2022-11-25T20:25:50.182Z,32.88
2022-11-25T20:30:52.964Z,32.42
2022-11-25T20:36:07.472Z,31.98
2022-11-25T20:41:11.575Z,31.63
2022-11-25T20:46:23.066Z,31.48
2022-11-25T20:51:25.417Z,31.74
2022-11-25T20:56:27.888Z,31.93
2022-11-25T21:01:29.827Z,32.84
2022-11-25T21:06:41.131Z,32.50
2022-11-25T21:11:43.395Z,31.67
2022-11-25T21:16:46.205Z,32.06
2022-11-25T21:21:50.431Z,32.13
2022-11-25T21:26:53.011Z,33.09
2022-11-25T21:31:55.315Z,33.45
2022-11-25T21:36:58.258Z,33.28
2022-11-25T21:42:05.006Z,33.58
2022-11-25T21:47:19.188Z,33.43
2022-11-25T21:52:21.423Z,33.05
2022-11-25T21:57:27.762Z,34.66
2022-11-25T22:02:30.402Z,34.84
2022-11-25T22:07:32.428Z,34.23
2022-11-25T22:12:39.776Z,34.53
2022-11-25T22:17:44.790Z,34.11
2022-11-25T22:22:46.635Z,34.05
2022-11-25T22:27:49.209Z,34.16
2022-11-25T22:32:59.967Z,34.08
2022-11-25T22:38:02.461Z,34.05
2022-11-25T22:43:04.800Z,34.03
2022-11-25T22:48:06.844Z,33.46
2022-11-25T22:53:14.837Z,33.05
2022-11-25T22:58:17.943Z,32.85
2022-11-25T23:03:21.971Z,33.31
2022-11-25T23:08:27.528Z,33.47
2022-11-25T23:13:29.692Z,33.73
2022-11-25T23:18:44.873Z,32.76
2022-11-25T23:23:46.798Z,34.11
2022-11-25T23:28:49.022Z,33.12
2022-11-25T23:33:52.405Z,32.70
2022-11-25T23:39:03.202Z,32.94
2022-11-25T23:44:23.771Z,32.62
2022-11-25T23:49:29.997Z,31.98
2022-11-25T23:54:40.875Z,32.06
2022-11-25T23:59:43.975Z,31.38
